Time;durP1;ratioP1;P1;durP2;ratioP2;P2;SDS_P1;SDS_P2;PMS_P1;PMS_P2;Temp;Humidity;BMP_temperature;BMP_pressure;BME280_temperature;BME280_humidity;BME280_pressure;Samples;Min_cycle;Max_cycle;Signal;HPM_P1;HPM_P2
2023/10/18 00:00:59;;;;;;;14.38;12.40;;;8.00;99.90;;;;;;5044193;28;20025;-36
2023/10/18 00:03:31;;;;;;;16.15;12.75;;;8.00;99.90;;;;;;5042112;28;20047;-35
2023/10/18 00:06:11;;;;;;;14.60;13.00;;;8.00;99.90;;;;;;5043817;28;20116;-35
2023/10/18 00:08:41;;;;;;;17.50;12.98;;;8.00;99.90;;;;;;5042662;28;20372;-34
2023/10/18 00:11:10;;;;;;;14.07;11.13;;;8.00;99.90;;;;;;5043364;28;20032;-35
2023/10/18 00:13:36;;;;;;;15.93;12.75;;;8.00;99.90;;;;;;5042908;28;20060;-34
2023/10/18 00:16:03;;;;;;;15.30;11.95;;;7.90;99.90;;;;;;5042462;28;20025;-35
2023/10/18 00:18:29;;;;;;;17.08;13.15;;;7.90;99.90;;;;;;5043186;28;20063;-35
2023/10/18 00:21:02;;;;;;;15.40;12.68;;;7.90;99.90;;;;;;5042876;28;20104;-35
2023/10/18 00:23:30;;;;;;;14.55;12.23;;;7.90;99.90;;;;;;5042570;28;20044;-34
2023/10/18 00:26:00;;;;;;;17.45;12.13;;;7.90;99.90;;;;;;5042967;28;20064;-34
2023/10/18 00:28:28;;;;;;;15.73;12.30;;;7.90;99.90;;;;;;5043215;28;20078;-34
2023/10/18 00:30:54;;;;;;;17.27;13.27;;;7.80;99.90;;;;;;5043098;28;20025;-35
2023/10/18 00:33:20;;;;;;;15.85;12.70;;;7.80;99.90;;;;;;5042212;28;20068;-34
2023/10/18 00:35:48;;;;;;;16.90;13.10;;;7.80;99.90;;;;;;5043354;28;20353;-34
2023/10/18 00:38:16;;;;;;;17.13;13.27;;;7.80;99.90;;;;;;5042181;28;20031;-34
2023/10/18 00:40:45;;;;;;;16.58;12.57;;;7.80;99.90;;;;;;5045191;28;20067;-35
2023/10/18 00:45:47;;;;;;;15.15;12.13;;;7.80;99.90;;;;;;5045768;28;20491;-35
2023/10/18 00:48:14;;;;;;;16.67;12.50;;;7.80;99.90;;;;;;5046369;28;20098;-34
2023/10/18 00:50:43;;;;;;;15.82;12.80;;;7.80;99.90;;;;;;5046063;28;20385;-34
2023/10/18 00:53:31;;;;;;;15.13;11.85;;;7.80;99.90;;;;;;5045756;28;20043;-34
2023/10/18 00:55:59;;;;;;;17.00;13.38;;;7.80;99.90;;;;;;5045412;28;20047;-35
2023/10/18 00:58:27;;;;;;;16.15;12.95;;;7.80;99.90;;;;;;5045803;28;20476;-35
2023/10/18 01:00:53;;;;;;;16.15;12.52;;;7.80;99.90;;;;;;5043377;28;20025;-35
2023/10/18 01:03:28;;;;;;;15.57;12.60;;;7.70;99.90;;;;;;5046276;28;20431;-35
2023/10/18 01:06:01;;;;;;;16.13;13.07;;;7.70;99.90;;;;;;5045031;28;20059;-35
2023/10/18 01:08:29;;;;;;;14.70;12.18;;;7.70;99.90;;;;;;5046605;28;20039;-35
2023/10/18 01:11:12;;;;;;;14.93;11.65;;;7.70;99.90;;;;;;5046193;28;20094;-35
2023/10/18 01:13:43;;;;;;;13.90;11.23;;;7.70;99.90;;;;;;5045807;28;20064;-36
2023/10/18 01:16:14;;;;;;;14.45;12.00;;;7.70;99.90;;;;;;5045229;28;20033;-34
2023/10/18 01:18:43;;;;;;;14.45;11.52;;;7.70;99.90;;;;;;5046486;28;20032;-35
2023/10/18 01:21:21;;;;;;;15.93;12.70;;;7.70;99.90;;;;;;5043952;28;20041;-35
2023/10/18 01:23:51;;;;;;;15.48;12.68;;;7.70;99.90;;;;;;5046321;28;20765;-35
2023/10/18 01:26:22;;;;;;;17.13;12.70;;;7.70;99.90;;;;;;5045898;28;20025;-35
2023/10/18 01:28:48;;;;;;;14.07;11.80;;;7.70;99.90;;;;;;5046531;28;20133;-34
2023/10/18 01:31:14;;;;;;;15.20;11.70;;;7.70;99.90;;;;;;5045507;28;20036;-35
2023/10/18 01:33:44;;;;;;;16.08;12.20;;;7.70;99.90;;;;;;5044609;28;20057;-35
2023/10/18 01:36:14;;;;;;;15.38;11.73;;;7.60;99.90;;;;;;5045137;28;20017;-36
2023/10/18 01:38:51;;;;;;;18.30;13.93;;;7.60;99.90;;;;;;5045765;28;20061;-35
2023/10/18 01:41:28;;;;;;;16.63;12.77;;;7.60;99.90;;;;;;5044758;28;20021;-36
2023/10/18 01:44:07;;;;;;;18.83;13.13;;;7.60;99.90;;;;;;5046054;28;20051;-36
2023/10/18 01:46:43;;;;;;;16.85;12.77;;;7.50;99.90;;;;;;5045014;28;20499;-35
2023/10/18 01:49:13;;;;;;;17.40;12.88;;;7.60;99.90;;;;;;5044505;28;20025;-35
2023/10/18 01:51:42;;;;;;;15.27;12.68;;;7.60;99.90;;;;;;5045314;28;20044;-36
2023/10/18 01:54:16;;;;;;;14.65;12.05;;;7.60;99.90;;;;;;5044101;28;20037;-35
2023/10/18 01:56:46;;;;;;;19.15;12.88;;;7.60;99.90;;;;;;5044823;28;20036;-35
2023/10/18 01:59:17;;;;;;;15.75;12.43;;;7.50;99.90;;;;;;5045296;28;20032;-35
2023/10/18 02:01:51;;;;;;;14.80;12.20;;;7.50;99.90;;;;;;5042774;28;20378;-35
2023/10/18 02:04:27;;;;;;;17.13;12.57;;;7.50;99.90;;;;;;5044924;28;20189;-35
2023/10/18 02:07:02;;;;;;;16.80;12.38;;;7.50;99.90;;;;;;5045463;28;20033;-36
2023/10/18 02:09:36;;;;;;;15.55;12.98;;;7.50;99.90;;;;;;5045059;28;20028;-35
2023/10/18 02:12:07;;;;;;;18.45;13.77;;;7.50;99.90;;;;;;5044928;28;20496;-34
2023/10/18 02:14:33;;;;;;;18.30;14.25;;;7.50;99.90;;;;;;5045239;28;20044;-35
2023/10/18 02:16:59;;;;;;;17.20;13.80;;;7.50;99.90;;;;;;5044194;28;20021;-40
2023/10/18 02:19:27;;;;;;;16.52;13.15;;;7.50;99.90;;;;;;5045703;28;20200;-35
2023/10/18 02:21:56;;;;;;;14.10;11.73;;;7.40;99.90;;;;;;5045429;28;20136;-36
2023/10/18 02:24:25;;;;;;;14.57;11.30;;;7.40;99.90;;;;;;5044306;28;20075;-39
2023/10/18 02:26:54;;;;;;;15.70;12.07;;;7.40;99.90;;;;;;5044444;28;20090;-36
2023/10/18 02:29:21;;;;;;;16.77;13.38;;;7.40;99.90;;;;;;5043865;28;20025;-36
2023/10/18 02:31:49;;;;;;;16.27;12.45;;;7.40;99.90;;;;;;5044409;28;20021;-34
2023/10/18 02:34:14;;;;;;;17.05;12.57;;;7.40;99.90;;;;;;5044309;28;20052;-39
2023/10/18 02:36:47;;;;;;;16.88;13.93;;;7.40;99.90;;;;;;5044598;28;20029;-36
2023/10/18 02:39:20;;;;;;;19.95;14.05;;;7.40;99.90;;;;;;5041064;28;20017;-35
2023/10/18 02:41:47;;;;;;;15.77;12.20;;;7.40;99.90;;;;;;5044379;28;20039;-36
2023/10/18 02:44:21;;;;;;;16.45;13.13;;;7.40;99.90;;;;;;5043498;28;20029;-35
2023/10/18 02:47:08;;;;;;;15.88;12.23;;;7.30;99.90;;;;;;5044575;28;20033;-35
2023/10/18 02:49:34;;;;;;;16.30;12.75;;;7.30;99.90;;;;;;5044752;28;20036;-35
2023/10/18 02:52:02;;;;;;;16.92;12.10;;;7.30;99.90;;;;;;5043669;28;20029;-35
2023/10/18 02:54:32;;;;;;;16.73;12.65;;;7.30;99.90;;;;;;5044716;28;20033;-34
2023/10/18 02:56:59;;;;;;;15.40;11.88;;;7.30;99.90;;;;;;5044534;28;20025;-36
2023/10/18 02:59:27;;;;;;;15.07;11.82;;;7.30;99.90;;;;;;5044013;28;20025;-36
2023/10/18 03:01:57;;;;;;;15.93;12.40;;;7.30;99.90;;;;;;5044735;28;20033;-36
2023/10/18 03:04:26;;;;;;;20.10;13.55;;;7.30;99.90;;;;;;5042866;28;20029;-37
2023/10/18 03:06:52;;;;;;;18.02;13.80;;;7.30;99.90;;;;;;5044762;28;20104;-36
2023/10/18 03:09:38;;;;;;;19.17;13.90;;;7.20;99.90;;;;;;5044369;28;20029;-36
2023/10/18 03:12:13;;;;;;;17.95;13.88;;;7.20;99.90;;;;;;5023767;28;20077;-35
2023/10/18 03:14:39;;;;;;;18.52;14.82;;;7.20;99.90;;;;;;5040639;28;20102;-36
2023/10/18 03:17:18;;;;;;;18.17;14.30;;;7.20;99.90;;;;;;5043767;28;20094;-35
2023/10/18 03:19:45;;;;;;;19.92;14.95;;;7.10;99.90;;;;;;5043315;28;20641;-35
2023/10/18 03:22:11;;;;;;;17.48;13.57;;;7.10;99.90;;;;;;5043333;28;20033;-35
2023/10/18 03:24:37;;;;;;;19.63;15.07;;;7.10;99.90;;;;;;5044225;28;20017;-35
2023/10/18 03:27:08;;;;;;;21.38;14.90;;;7.10;99.90;;;;;;5042727;28;20434;-34
2023/10/18 03:29:43;;;;;;;20.40;14.77;;;7.10;99.90;;;;;;5044042;28;20021;-35
2023/10/18 03:32:14;;;;;;;18.02;13.98;;;7.10;99.90;;;;;;5043139;28;20114;-36
2023/10/18 03:34:41;;;;;;;16.02;12.52;;;7.10;99.90;;;;;;5042236;28;20043;-35
2023/10/18 03:37:08;;;;;;;15.77;12.63;;;7.10;99.90;;;;;;5042931;28;20472;-35
2023/10/18 03:39:36;;;;;;;17.42;12.68;;;7.10;99.90;;;;;;5043224;28;20036;-35
2023/10/18 03:42:08;;;;;;;14.73;12.32;;;7.10;99.90;;;;;;5042998;28;20033;-35
2023/10/18 03:44:33;;;;;;;16.88;12.30;;;7.10;99.90;;;;;;5043782;28;20028;-36
2023/10/18 03:47:11;;;;;;;16.20;12.77;;;7.10;99.90;;;;;;5043446;28;20029;-35
2023/10/18 03:49:37;;;;;;;17.10;12.60;;;7.20;99.90;;;;;;5044030;28;20021;-35
2023/10/18 03:54:46;;;;;;;15.40;11.73;;;7.20;99.90;;;;;;5043067;28;20140;-35
2023/10/18 03:57:19;;;;;;;18.40;13.50;;;7.10;99.90;;;;;;5032114;28;20039;-35
2023/10/18 03:59:45;;;;;;;;;;;7.10;99.90;;;;;;5043514;28;20025;-35
2023/10/18 04:04:50;;;;;;;17.33;12.35;;;7.10;99.90;;;;;;5043200;28;20471;-35
2023/10/18 04:07:24;;;;;;;17.08;12.25;;;7.10;99.90;;;;;;5043052;28;20027;-36
2023/10/18 04:12:26;;;;;;;17.83;13.43;;;7.10;99.90;;;;;;5039302;28;20035;-35
2023/10/18 04:15:19;;;;;;;17.45;13.13;;;7.10;99.90;;;;;;5043293;28;20051;-35
2023/10/18 04:18:02;;;;;;;14.77;11.63;;;7.10;99.90;;;;;;5046262;28;20036;-35
2023/10/18 04:20:31;;;;;;;17.42;13.32;;;7.10;99.90;;;;;;5047225;28;20037;-34
2023/10/18 04:22:57;;;;;;;16.92;13.85;;;7.10;99.90;;;;;;5046434;28;20075;-37
2023/10/18 04:25:26;;;;;;;17.48;13.07;;;7.00;99.90;;;;;;5046873;28;20036;-34
2023/10/18 04:27:59;;;;;;;19.13;12.73;;;7.00;99.90;;;;;;5046852;28;20068;-34
2023/10/18 04:30:37;;;;;;;17.02;13.35;;;7.00;99.90;;;;;;5046666;28;20043;-34
2023/10/18 04:35:44;;;;;;;16.88;12.63;;;7.00;99.90;;;;;;5047056;28;20044;-34
2023/10/18 04:38:24;;;;;;;17.50;13.05;;;7.00;99.90;;;;;;5043806;28;20052;-41
2023/10/18 04:40:55;;;;;;;17.88;12.95;;;7.00;99.90;;;;;;5047141;28;20017;-35
2023/10/18 04:43:25;;;;;;;16.30;13.00;;;7.00;99.90;;;;;;5042666;28;20032;-35
2023/10/18 04:45:59;;;;;;;17.65;12.45;;;7.00;99.90;;;;;;5047021;28;20109;-34
2023/10/18 04:51:24;;;;;;;16.60;12.70;;;7.00;99.90;;;;;;5045587;28;20158;-36
2023/10/18 04:54:00;;;;;;;16.80;12.75;;;6.90;99.90;;;;;;5045059;28;20464;-35
2023/10/18 04:56:32;;;;;;;16.35;12.77;;;7.00;99.90;;;;;;5046155;28;20024;-36
2023/10/18 04:59:06;;;;;;;17.58;13.43;;;7.00;99.90;;;;;;5045308;28;20469;-36
2023/10/18 05:01:35;;;;;;;15.77;12.68;;;6.90;99.90;;;;;;5045994;28;20494;-35
2023/10/18 05:04:18;;;;;;;15.95;11.55;;;6.90;99.90;;;;;;5042267;28;20457;-35
2023/10/18 05:06:45;;;;;;;15.13;12.18;;;6.90;99.90;;;;;;5046033;28;20047;-36
2023/10/18 05:09:12;;;;;;;16.05;11.95;;;6.90;99.90;;;;;;5045791;28;20029;-36
2023/10/18 05:11:47;;;;;;;17.10;13.68;;;6.90;99.90;;;;;;5046107;28;20033;-36
2023/10/18 05:14:19;;;;;;;20.25;13.88;;;6.90;99.90;;;;;;5044572;28;20231;-36
2023/10/18 05:16:46;;;;;;;17.30;13.65;;;6.90;99.90;;;;;;5045813;28;20025;-36
2023/10/18 05:19:28;;;;;;;17.70;13.35;;;6.90;99.90;;;;;;5044506;28;20392;-36
2023/10/18 05:21:56;;;;;;;16.65;13.23;;;6.90;99.90;;;;;;5046590;28;20025;-38
2023/10/18 05:24:22;;;;;;;16.60;12.40;;;6.90;99.90;;;;;;5045753;28;20446;-37
2023/10/18 05:26:55;;;;;;;16.98;12.90;;;6.90;99.90;;;;;;5045372;28;20037;-36
2023/10/18 05:29:22;;;;;;;15.80;12.65;;;6.90;99.90;;;;;;5045948;28;20064;-36
2023/10/18 05:32:09;;;;;;;18.58;13.45;;;6.90;99.90;;;;;;5047249;28;20136;-36
2023/10/18 05:34:49;;;;;;;16.92;13.20;;;6.90;99.90;;;;;;5045322;28;20123;-36
2023/10/18 05:37:15;;;;;;;18.23;13.60;;;6.80;99.90;;;;;;5045744;28;20080;-35
2023/10/18 05:42:25;;;;;;;20.00;14.07;;;6.80;99.90;;;;;;5046332;28;20047;-35
2023/10/18 05:44:51;;;;;;;19.17;13.05;;;6.80;99.90;;;;;;5045858;28;20028;-35
2023/10/18 05:47:17;;;;;;;21.02;14.00;;;6.80;99.90;;;;;;5045215;28;20040;-35
2023/10/18 05:49:42;;;;;;;18.50;13.85;;;6.80;99.90;;;;;;5045566;28;20021;-35
2023/10/18 05:54:36;;;;;;;18.13;13.93;;;6.70;99.90;;;;;;5045429;28;20040;-35
2023/10/18 05:57:02;;;;;;;19.50;13.73;;;6.80;99.90;;;;;;5045335;28;20025;-35
2023/10/18 05:59:31;;;;;;;19.77;14.70;;;6.80;99.90;;;;;;5044840;28;20037;-35
2023/10/18 06:02:00;;;;;;;17.00;13.50;;;6.80;99.90;;;;;;5044352;28;20025;-35
2023/10/18 06:04:29;;;;;;;15.65;12.73;;;6.70;99.90;;;;;;5045893;28;20021;-35
2023/10/18 06:07:04;;;;;;;15.88;12.13;;;6.70;99.90;;;;;;5045519;28;20120;-35
2023/10/18 06:09:33;;;;;;;16.88;13.13;;;6.70;99.90;;;;;;5044917;28;20017;-35
2023/10/18 06:12:08;;;;;;;15.40;11.30;;;6.70;99.90;;;;;;5044860;28;20044;-35
2023/10/18 06:14:40;;;;;;;13.00;11.00;;;6.70;99.90;;;;;;5044227;28;20075;-35
2023/10/18 06:17:12;;;;;;;15.40;11.07;;;6.70;99.90;;;;;;5044726;28;20127;-35
2023/10/18 06:19:45;;;;;;;16.90;10.48;;;6.70;99.90;;;;;;5045321;28;20031;-35
2023/10/18 06:22:29;;;;;;;;;;;6.70;99.90;;;;;;5044153;28;20480;-37
2023/10/18 06:25:00;;;;;;;12.82;10.27;;;6.80;99.90;;;;;;5045025;28;19912;-35
2023/10/18 06:27:25;;;;;;;13.38;10.32;;;6.80;99.90;;;;;;5045142;28;20025;-35
2023/10/18 06:29:53;;;;;;;13.88;10.48;;;6.80;99.90;;;;;;5044439;28;20021;-36
2023/10/18 06:32:22;;;;;;;15.68;10.90;;;6.80;99.90;;;;;;5044535;28;20087;-36
2023/10/18 06:34:56;;;;;;;17.88;12.25;;;6.80;99.90;;;;;;5045029;28;20033;-35
2023/10/18 06:37:22;;;;;;;18.35;12.85;;;6.80;99.90;;;;;;5043038;28;20032;-35
2023/10/18 06:39:54;;;;;;;18.23;13.50;;;6.80;99.90;;;;;;5044011;28;20064;-37
2023/10/18 06:42:22;;;;;;;15.57;11.60;;;6.80;99.90;;;;;;5040842;28;20129;-35
2023/10/18 06:44:48;;;;;;;17.27;11.15;;;6.90;99.90;;;;;;5044827;28;20044;-35
2023/10/18 06:47:13;;;;;;;18.05;12.95;;;6.80;99.90;;;;;;5044044;28;20040;-35
2023/10/18 06:49:42;;;;;;;17.77;13.05;;;6.90;99.90;;;;;;5044301;28;20583;-35
2023/10/18 06:52:09;;;;;;;16.38;11.77;;;6.90;99.90;;;;;;5043646;28;20035;-35
2023/10/18 06:54:38;;;;;;;16.40;12.18;;;6.90;99.90;;;;;;5044849;28;20591;-36
2023/10/18 06:57:16;;;;;;;18.08;13.48;;;6.90;99.90;;;;;;5042982;28;20027;-34
2023/10/18 06:59:48;;;;;;;16.60;12.60;;;6.90;99.90;;;;;;5040745;28;20082;-35
2023/10/18 07:02:14;;;;;;;17.98;13.68;;;7.00;99.90;;;;;;5043386;28;20080;-35
2023/10/18 07:04:50;;;;;;;16.00;12.43;;;7.00;99.90;;;;;;5043810;28;20021;-34
2023/10/18 07:07:22;;;;;;;19.50;13.85;;;7.00;99.90;;;;;;5043702;28;20051;-34
2023/10/18 07:09:56;;;;;;;16.98;12.73;;;7.10;99.90;;;;;;5044399;28;20116;-35
2023/10/18 07:12:28;;;;;;;16.88;12.57;;;7.10;99.90;;;;;;5042717;28;20112;-35
2023/10/18 07:14:56;;;;;;;16.90;13.13;;;7.10;99.90;;;;;;5044010;28;20112;-35
2023/10/18 07:17:24;;;;;;;16.52;13.57;;;7.10;99.90;;;;;;5043259;28;20114;-35
2023/10/18 07:19:56;;;;;;;16.73;13.52;;;7.10;99.90;;;;;;5043437;28;20036;-34
2023/10/18 07:25:19;;;;;;;18.52;13.73;;;7.20;99.90;;;;;;5042949;28;20685;-35
2023/10/18 07:27:45;;;;;;;17.58;13.38;;;7.20;99.90;;;;;;5043551;28;20028;-35
2023/10/18 07:30:14;;;;;;;17.42;13.40;;;7.20;99.90;;;;;;5043350;28;20094;-35
2023/10/18 07:32:41;;;;;;;16.90;12.15;;;7.30;99.90;;;;;;5043329;28;20052;-35
2023/10/18 07:35:30;;;;;;;15.77;12.77;;;7.30;99.90;;;;;;5043522;28;20032;-36
2023/10/18 07:37:56;;;;;;;17.88;12.55;;;7.40;99.90;;;;;;5043586;28;20388;-35
2023/10/18 07:40:22;;;;;;;15.10;11.73;;;7.40;99.90;;;;;;5043067;28;20029;-36
2023/10/18 07:42:51;;;;;;;16.10;11.88;;;7.40;99.90;;;;;;5044183;28;20060;-37
2023/10/18 07:45:20;;;;;;;14.48;11.18;;;7.40;99.90;;;;;;5043346;28;20021;-35
2023/10/18 07:47:53;;;;;;;15.18;11.20;;;7.50;99.90;;;;;;5043235;28;20025;-35
2023/10/18 07:53:05;;;;;;;16.40;11.45;;;7.60;99.90;;;;;;5046484;28;20507;-35
2023/10/18 07:55:36;;;;;;;14.40;11.38;;;7.70;99.90;;;;;;5047757;28;20028;-35
2023/10/18 07:58:17;;;;;;;16.77;11.38;;;7.70;99.90;;;;;;5046784;28;20037;-36
2023/10/18 08:01:07;;;;;;;16.83;12.27;;;7.70;99.90;;;;;;5046985;28;20045;-35
2023/10/18 08:03:33;;;;;;;16.17;11.50;;;7.80;99.90;;;;;;5047315;28;20458;-36
2023/10/18 08:06:04;;;;;;;16.30;11.00;;;7.90;99.90;;;;;;5047631;28;20071;-36
2023/10/18 08:08:35;;;;;;;16.02;12.38;;;7.90;99.90;;;;;;5047114;28;20025;-36
2023/10/18 08:11:04;;;;;;;18.52;11.98;;;7.90;99.90;;;;;;5046990;28;20028;-35
2023/10/18 08:13:29;;;;;;;14.75;11.73;;;8.00;99.90;;;;;;5047335;28;20068;-35
2023/10/18 08:15:56;;;;;;;16.70;11.70;;;8.00;99.90;;;;;;5046144;28;20120;-35
2023/10/18 08:21:07;;;;;;;13.02;10.13;;;8.10;99.90;;;;;;5035934;28;20052;-36
2023/10/18 08:23:41;;;;;;;13.35;10.82;;;8.10;99.90;;;;;;5047861;28;20013;-35
2023/10/18 08:26:07;;;;;;;18.55;10.23;;;8.20;99.90;;;;;;5048004;28;20079;-37
2023/10/18 08:28:40;;;;;;;13.80;10.63;;;8.20;99.90;;;;;;5046890;28;20025;-36
2023/10/18 08:31:32;;;;;;;16.02;10.15;;;8.30;99.90;;;;;;5047258;28;20051;-35
2023/10/18 08:33:59;;;;;;;12.85;10.18;;;8.40;99.90;;;;;;5046898;28;20102;-34
2023/10/18 08:36:31;;;;;;;13.43;10.38;;;8.40;99.90;;;;;;5046368;28;20347;-35
2023/10/18 08:38:57;;;;;;;12.40;9.10;;;8.50;99.90;;;;;;5047294;28;20036;-35
2023/10/18 08:41:36;;;;;;;12.85;9.63;;;8.50;99.90;;;;;;5046169;28;20439;-34
2023/10/18 08:44:19;;;;;;;13.40;9.75;;;8.60;99.90;;;;;;5045375;28;20041;-34
2023/10/18 08:46:55;;;;;;;13.07;9.63;;;8.70;99.90;;;;;;5046765;28;20484;-34
2023/10/18 08:49:25;;;;;;;11.73;9.50;;;8.70;99.90;;;;;;5045402;28;20082;-35
2023/10/18 08:51:56;;;;;;;13.45;9.88;;;8.80;99.90;;;;;;5046746;28;20021;-35
2023/10/18 08:54:23;;;;;;;10.23;8.20;;;8.80;99.90;;;;;;5046112;28;20044;-36
2023/10/18 08:56:51;;;;;;;11.05;8.88;;;8.90;99.90;;;;;;5046217;28;20033;-36
2023/10/18 08:59:18;;;;;;;11.32;9.35;;;9.00;99.90;;;;;;5046205;28;20037;-37
2023/10/18 09:02:39;;;;;;;10.88;8.98;;;9.00;99.90;;;;;;5045578;28;20365;-35
2023/10/18 09:04:35;;;;;;;12.52;9.43;;;9.10;99.90;;;;;;5045253;28;20041;-35
2023/10/18 09:09:57;;;;;;;11.88;9.90;;;9.20;99.90;;;;;;5047064;28;20059;-36
2023/10/18 09:15:29;;;;;;;13.93;9.05;;;9.30;99.90;;;;;;5045639;28;20102;-35
2023/10/18 09:18:03;;;;;;;10.45;9.23;;;9.30;99.90;;;;;;5034550;28;20449;-42
2023/10/18 09:20:29;;;;;;;12.18;8.40;;;9.40;99.90;;;;;;5046302;28;20079;-43
2023/10/18 09:23:05;;;;;;;11.35;8.48;;;9.40;99.90;;;;;;5046070;28;20479;-43
2023/10/18 09:25:49;;;;;;;11.75;8.10;;;9.50;99.90;;;;;;5045735;28;20021;-43
2023/10/18 09:28:25;;;;;;;13.07;8.55;;;9.60;99.90;;;;;;5034806;28;20375;-43
2023/10/18 09:31:04;;;;;;;10.15;8.25;;;9.70;99.90;;;;;;5046092;28;20073;-43
2023/10/18 09:33:32;;;;;;;10.77;8.52;;;9.70;99.90;;;;;;5035502;28;20053;-44
2023/10/18 09:36:01;;;;;;;12.88;9.43;;;9.70;99.90;;;;;;5045643;28;20137;-44
2023/10/18 09:38:39;;;;;;;11.07;8.80;;;9.80;99.90;;;;;;5045068;28;20071;-44
2023/10/18 09:41:23;;;;;;;9.30;7.82;;;9.80;99.90;;;;;;5045322;28;20029;-44
2023/10/18 09:43:49;;;;;;;9.63;7.88;;;9.90;99.90;;;;;;5035393;28;20094;-43
2023/10/18 09:46:15;;;;;;;9.75;7.50;;;9.90;99.90;;;;;;5044333;28;20037;-44
2023/10/18 09:48:43;;;;;;;8.93;7.65;;;9.90;99.90;;;;;;5045665;28;20021;-44
2023/10/18 09:51:10;;;;;;;10.57;7.78;;;10.00;99.90;;;;;;5044725;28;20028;-43
2023/10/18 09:53:42;;;;;;;9.48;7.85;;;10.00;99.90;;;;;;5043987;28;20473;-44
2023/10/18 09:56:12;;;;;;;10.93;9.02;;;10.00;99.90;;;;;;5045366;28;20135;-43
2023/10/18 09:58:46;;;;;;;10.65;7.10;;;10.00;99.90;;;;;;5045029;28;20810;-44
2023/10/18 10:01:14;;;;;;;8.57;7.60;;;10.10;99.90;;;;;;5044201;28;20025;-44
2023/10/18 10:03:58;;;;;;;10.68;7.55;;;10.10;99.90;;;;;;5045114;28;20020;-44
2023/10/18 10:06:27;;;;;;;9.38;8.20;;;10.10;99.90;;;;;;5044339;28;20108;-43
2023/10/18 10:09:12;;;;;;;8.75;6.85;;;10.20;99.90;;;;;;5045318;28;20133;-43
2023/10/18 10:11:59;;;;;;;10.90;6.57;;;10.20;99.90;;;;;;5045360;28;20544;-42
2023/10/18 10:14:35;;;;;;;8.57;6.43;;;10.30;99.90;;;;;;5043469;28;20045;-42
2023/10/18 10:17:15;;;;;;;8.05;7.22;;;10.30;99.90;;;;;;5044715;28;20024;-43
2023/10/18 10:19:48;;;;;;;8.55;7.45;;;10.40;99.90;;;;;;5043194;28;20883;-43
2023/10/18 10:22:24;;;;;;;9.02;7.43;;;10.40;99.90;;;;;;5043749;28;20052;-43
2023/10/18 10:24:59;;;;;;;8.45;6.57;;;10.50;99.90;;;;;;5043169;28;20025;-43
2023/10/18 10:32:55;;;;;;;10.20;6.70;;;10.70;99.90;;;;;;5044636;28;20174;-44
2023/10/18 10:35:25;;;;;;;8.85;7.22;;;10.80;99.90;;;;;;5043928;28;20032;-43
2023/10/18 10:38:06;;;;;;;10.55;7.30;;;10.90;99.90;;;;;;5045088;28;20024;-43
2023/10/18 10:43:02;;;;;;;7.45;6.35;;;11.10;99.90;;;;;;5043244;28;20045;-43
2023/10/18 10:48:16;;;;;;;9.75;7.05;;;11.30;99.90;;;;;;5043468;28;20025;-43
2023/10/18 10:50:53;;;;;;;12.48;7.53;;;11.30;99.90;;;;;;5043926;28;20537;-44
2023/10/18 10:53:50;;;;;;;7.82;6.57;;;11.40;99.90;;;;;;5043561;28;20059;-43
2023/10/18 10:56:18;;;;;;;7.93;6.50;;;11.50;99.90;;;;;;5032905;28;20102;-43
2023/10/18 10:59:03;;;;;;;6.45;5.65;;;11.50;99.90;;;;;;5044476;28;20148;-43
2023/10/18 11:01:43;;;;;;;7.95;6.45;;;11.70;99.90;;;;;;5033839;28;20069;-43
2023/10/18 11:04:24;;;;;;;7.70;6.13;;;11.80;99.90;;;;;;5042757;28;20029;-42
2023/10/18 11:06:56;;;;;;;6.80;5.93;;;11.80;99.90;;;;;;5044559;28;20032;-43
2023/10/18 11:09:32;;;;;;;6.85;5.53;;;11.90;99.90;;;;;;5044269;28;20021;-43
2023/10/18 11:12:01;;;;;;;6.43;5.35;;;12.00;99.90;;;;;;5043567;28;20506;-43
2023/10/18 11:14:30;;;;;;;7.75;6.22;;;12.00;99.90;;;;;;5043836;28;20048;-43
2023/10/18 11:19:53;;;;;;;7.47;6.50;;;12.10;99.90;;;;;;5044172;28;20039;-42
2023/10/18 11:22:29;;;;;;;7.93;6.13;;;12.20;99.90;;;;;;5044084;28;20029;-43
2023/10/18 11:24:56;;;;;;;8.93;7.35;;;12.20;99.90;;;;;;5043391;28;20078;-43
2023/10/18 11:27:34;;;;;;;9.40;6.80;;;12.20;99.90;;;;;;5043543;28;20028;-44
2023/10/18 11:30:16;;;;;;;8.10;6.97;;;12.20;99.90;;;;;;5043257;28;20035;-44
2023/10/18 11:33:00;;;;;;;7.10;5.95;;;12.20;99.90;;;;;;5043287;28;20045;-43
2023/10/18 11:38:10;;;;;;;8.57;6.53;;;12.30;99.90;;;;;;5042902;28;20044;-43
2023/10/18 11:40:42;;;;;;;7.57;6.05;;;12.30;99.90;;;;;;5043375;28;20096;-43
2023/10/18 11:43:11;;;;;;;11.38;6.97;;;12.30;99.90;;;;;;5043223;28;20024;-44
2023/10/18 11:45:39;;;;;;;11.35;6.97;;;12.30;99.90;;;;;;5042978;28;20021;-43
2023/10/18 11:48:14;;;;;;;8.55;6.65;;;12.40;99.90;;;;;;5043486;28;20037;-44
2023/10/18 11:50:41;;;;;;;8.85;6.78;;;12.40;99.90;;;;;;5044201;28;20029;-44
2023/10/18 11:53:12;;;;;;;10.02;7.20;;;12.40;99.90;;;;;;5031793;28;20025;-43
2023/10/18 11:55:59;;;;;;;9.48;6.90;;;12.50;99.90;;;;;;5043247;28;20029;-44
2023/10/18 11:58:26;;;;;;;8.70;7.45;;;12.50;99.90;;;;;;5033729;28;20464;-43
2023/10/18 12:00:58;;;;;;;9.00;6.90;;;12.50;99.90;;;;;;5043506;28;20033;-43
2023/10/18 12:03:27;;;;;;;8.95;6.80;;;12.60;99.90;;;;;;5043872;28;20025;-43
2023/10/18 12:05:55;;;;;;;8.20;6.15;;;12.60;99.90;;;;;;5043540;28;20025;-43
2023/10/18 12:08:23;;;;;;;6.68;5.53;;;12.60;99.90;;;;;;5043151;28;20032;-43
2023/10/18 12:10:54;;;;;;;6.60;5.68;;;12.70;99.90;;;;;;5044327;28;20059;-43
2023/10/18 12:13:20;;;;;;;7.60;6.40;;;12.70;99.90;;;;;;5039230;28;20087;-44
2023/10/18 12:15:47;;;;;;;6.05;5.32;;;12.80;99.90;;;;;;5044087;28;20816;-43
2023/10/18 12:18:14;;;;;;;6.43;5.80;;;12.80;99.90;;;;;;5043077;28;20029;-43
2023/10/18 12:20:43;;;;;;;7.13;5.43;;;12.90;99.90;;;;;;5042549;28;20017;-42
2023/10/18 12:23:10;;;;;;;6.50;5.55;;;13.00;99.90;;;;;;5043151;28;20164;-43
2023/10/18 12:25:42;;;;;;;6.03;4.85;;;13.00;99.90;;;;;;5043368;28;20032;-43
2023/10/18 12:30:55;;;;;;;10.85;6.65;;;13.10;99.90;;;;;;5024136;28;20032;-43
2023/10/18 12:33:24;;;;;;;8.07;6.35;;;13.20;99.90;;;;;;5038214;28;20053;-43
2023/10/18 12:35:51;;;;;;;9.32;7.18;;;13.20;99.90;;;;;;5023533;28;20102;-43
2023/10/18 12:38:30;;;;;;;8.38;6.38;;;13.20;99.90;;;;;;5041386;28;20036;-43
2023/10/18 12:40:58;;;;;;;8.15;5.78;;;13.20;99.90;;;;;;5047710;28;20104;-43
2023/10/18 12:43:24;;;;;;;8.48;5.18;;;13.20;99.90;;;;;;5046161;28;20476;-43
2023/10/18 12:45:50;;;;;;;8.45;5.80;;;13.20;99.90;;;;;;5047364;28;20017;-43
2023/10/18 12:48:22;;;;;;;6.85;5.22;;;13.30;99.90;;;;;;5045953;28;20086;-43
2023/10/18 12:50:55;;;;;;;6.13;4.60;;;13.30;99.90;;;;;;5047572;28;20083;-43
2023/10/18 12:56:25;;;;;;;5.55;4.70;;;13.40;99.90;;;;;;5046492;28;20037;-43
2023/10/18 12:59:39;;;;;;;6.82;4.63;;;13.40;99.90;;;;;;5046263;28;20028;-43
2023/10/18 13:04:08;;;;;;;8.43;5.32;;;13.50;99.90;;;;;;5045504;28;20033;-43
2023/10/18 13:06:42;;;;;;;6.20;5.10;;;13.50;99.90;;;;;;5046297;28;20151;-43
2023/10/18 13:11:54;;;;;;;7.80;6.03;;;13.40;99.90;;;;;;5046548;28;20029;-43
2023/10/18 13:14:23;;;;;;;8.02;5.78;;;13.40;99.90;;;;;;5046101;28;20127;-42
2023/10/18 13:16:50;;;;;;;6.07;5.30;;;13.40;99.90;;;;;;5045764;28;20045;-43
2023/10/18 13:19:15;;;;;;;7.32;5.72;;;13.40;99.90;;;;;;5045672;28;20021;-44
2023/10/18 13:21:43;;;;;;;6.55;5.85;;;13.30;99.90;;;;;;5046184;28;20036;-44
2023/10/18 13:26:55;;;;;;;6.30;5.20;;;13.40;99.90;;;;;;5046090;28;20044;-44
2023/10/18 13:31:50;;;;;;;7.22;5.60;;;13.50;99.90;;;;;;5045174;28;20044;-44
2023/10/18 13:34:20;;;;;;;6.30;5.10;;;13.50;99.90;;;;;;5044884;28;20033;-44
2023/10/18 13:36:50;;;;;;;8.32;5.90;;;13.60;99.90;;;;;;5046262;28;20082;-43
2023/10/18 13:39:28;;;;;;;8.43;5.88;;;13.60;99.90;;;;;;5044545;28;20052;-43
2023/10/18 13:41:54;;;;;;;6.13;5.28;;;13.60;99.90;;;;;;5036660;28;20051;-43
2023/10/18 13:44:23;;;;;;;7.57;5.57;;;13.60;99.90;;;;;;5044225;28;20681;-43
2023/10/18 13:46:54;;;;;;;8.38;5.75;;;13.70;99.90;;;;;;5045397;28;20029;-42
2023/10/18 13:49:23;;;;;;;7.87;5.20;;;13.70;99.90;;;;;;5045115;28;20111;-43
2023/10/18 13:51:49;;;;;;;8.00;5.18;;;13.70;99.90;;;;;;5045250;28;20703;-44
2023/10/18 13:54:15;;;;;;;6.95;5.05;;;13.70;99.90;;;;;;5044707;28;20476;-42
2023/10/18 13:56:41;;;;;;;6.63;4.95;;;13.70;99.90;;;;;;5045392;28;20047;-43
2023/10/18 13:59:06;;;;;;;7.00;5.50;;;13.80;99.90;;;;;;5044978;28;20472;-44
2023/10/18 14:01:34;;;;;;;8.13;5.45;;;13.80;99.90;;;;;;5045133;28;20391;-44
2023/10/18 14:04:01;;;;;;;5.45;4.78;;;13.80;99.90;;;;;;5045167;28;20024;-43
2023/10/18 14:06:28;;;;;;;7.63;5.25;;;13.80;99.90;;;;;;5044810;28;20025;-44
2023/10/18 14:08:54;;;;;;;8.45;5.30;;;13.80;99.90;;;;;;5045725;28;20021;-43